Time;durP1;ratioP1;P1;durP2;ratioP2;P2;SDS_P1;SDS_P2;PMS_P1;PMS_P2;Temp;Humidity;BMP_temperature;BMP_pressure;BME280_temperature;BME280_humidity;BME280_pressure;Samples;Min_cycle;Max_cycle;Signal;HPM_P1;HPM_P2
2023/05/11 00:01:06;;;;;;;82.63;41.50;;;13.70;99.90;;;;;;5055979;28;20025;-67
2023/05/11 00:03:32;;;;;;;93.57;44.60;;;13.70;99.90;;;;;;5056243;28;20025;-67
2023/05/11 00:05:59;;;;;;;107.25;46.83;;;13.70;99.90;;;;;;5056609;28;20118;-67
2023/05/11 00:08:24;;;;;;;103.55;47.92;;;13.70;99.90;;;;;;5055189;28;20060;-67
2023/05/11 00:10:50;;;;;;;106.32;49.03;;;13.70;99.90;;;;;;5056113;28;20487;-67
2023/05/11 00:13:16;;;;;;;103.13;47.10;;;13.60;99.90;;;;;;5055932;28;20056;-67
2023/05/11 00:15:42;;;;;;;104.80;48.83;;;13.60;99.90;;;;;;5055974;28;20474;-66
2023/05/11 00:18:07;;;;;;;116.65;51.42;;;13.60;99.90;;;;;;5055990;28;20021;-66
2023/05/11 00:20:33;;;;;;;122.80;53.50;;;13.60;99.90;;;;;;5055833;28;20032;-67
2023/05/11 00:22:58;;;;;;;132.88;59.13;;;13.70;99.90;;;;;;5055502;28;20029;-67
2023/05/11 00:25:24;;;;;;;147.02;65.10;;;13.60;99.90;;;;;;5055830;28;20112;-67
2023/05/11 00:27:50;;;;;;;154.20;65.60;;;13.60;99.90;;;;;;5055451;28;20084;-67
2023/05/11 00:30:15;;;;;;;148.35;64.47;;;13.60;99.90;;;;;;5055677;28;20387;-67
2023/05/11 00:32:42;;;;;;;138.07;63.38;;;13.50;99.90;;;;;;5054758;28;20083;-67
2023/05/11 00:35:09;;;;;;;128.73;59.75;;;13.50;99.90;;;;;;5055662;28;20382;-67
2023/05/11 00:37:35;;;;;;;152.48;65.75;;;13.50;99.90;;;;;;5055511;28;20104;-67
2023/05/11 00:40:01;;;;;;;155.65;70.50;;;13.50;99.90;;;;;;5055999;28;20068;-67
2023/05/11 00:42:27;;;;;;;170.10;73.55;;;13.50;99.90;;;;;;5054972;28;20479;-67
2023/05/11 00:44:52;;;;;;;152.73;69.97;;;13.50;99.90;;;;;;5055746;28;20032;-66
2023/05/11 00:47:18;;;;;;;167.57;70.50;;;13.50;99.90;;;;;;5055634;28;20048;-67
2023/05/11 00:49:45;;;;;;;159.43;68.47;;;13.50;99.90;;;;;;5055049;28;20036;-67
2023/05/11 00:52:10;;;;;;;155.63;68.72;;;13.50;99.90;;;;;;5055077;28;20029;-67
2023/05/11 00:54:36;;;;;;;158.80;67.55;;;13.40;99.90;;;;;;5054342;28;20113;-66
2023/05/11 00:57:02;;;;;;;158.13;66.95;;;13.40;99.90;;;;;;5055234;28;20025;-66
2023/05/11 00:59:29;;;;;;;156.95;66.47;;;13.40;99.90;;;;;;5055463;28;20371;-66
2023/05/11 01:01:55;;;;;;;146.18;62.40;;;13.40;99.90;;;;;;5055047;28;20157;-66
2023/05/11 01:04:21;;;;;;;151.05;64.07;;;13.30;99.90;;;;;;5055011;28;20124;-67
2023/05/11 01:09:53;;;;;;;161.00;67.93;;;13.30;99.90;;;;;;5111983;27;20384;-66
2023/05/11 01:12:59;;;;;;;170.93;70.63;;;13.30;99.90;;;;;;5111649;28;20041;-67
2023/05/11 01:15:36;;;;;;;164.18;68.10;;;13.20;99.90;;;;;;5110746;28;20466;-67
2023/05/11 01:18:41;;;;;;;174.63;70.05;;;13.30;99.90;;;;;;5110860;27;20534;-66
2023/05/11 01:21:09;;;;;;;168.48;69.80;;;13.30;99.90;;;;;;5111201;28;20026;-66
2023/05/11 01:24:11;;;;;;;177.60;71.32;;;13.30;99.90;;;;;;5111553;28;20024;-66
2023/05/11 01:27:05;;;;;;;183.25;72.72;;;13.30;99.90;;;;;;5110990;28;20035;-67
2023/05/11 01:30:04;;;;;;;179.20;73.07;;;13.30;99.90;;;;;;5111463;28;20122;-66
2023/05/11 01:32:32;;;;;;;175.25;69.95;;;13.30;99.90;;;;;;5111019;28;20023;-67
2023/05/11 01:35:04;;;;;;;188.93;74.97;;;13.40;99.90;;;;;;5111096;27;20032;-67
2023/05/11 01:37:31;;;;;;;185.40;74.47;;;13.30;99.90;;;;;;5111608;28;20466;-66
2023/05/11 01:40:02;;;;;;;177.20;70.68;;;13.20;99.90;;;;;;5111106;28;20051;-67
2023/05/11 01:42:34;;;;;;;183.30;75.30;;;13.40;99.90;;;;;;5110974;28;20073;-66
2023/05/11 01:45:02;;;;;;;180.68;73.22;;;13.30;99.90;;;;;;5110809;28;20020;-67
2023/05/11 01:47:30;;;;;;;180.65;76.38;;;13.40;99.90;;;;;;5110871;28;20078;-66
2023/05/11 01:49:57;;;;;;;189.23;72.45;;;13.40;99.90;;;;;;5110854;28;20023;-67
2023/05/11 01:52:26;;;;;;;194.93;73.53;;;13.40;99.90;;;;;;5110984;28;20028;-67
2023/05/11 01:54:53;;;;;;;188.95;75.28;;;13.30;99.90;;;;;;5110728;27;20055;-67
2023/05/11 01:57:21;;;;;;;186.93;73.18;;;13.30;99.90;;;;;;5109713;28;20028;-67
2023/05/11 01:59:49;;;;;;;198.80;75.82;;;13.30;99.90;;;;;;5110789;28;20107;-66
2023/05/11 02:02:17;;;;;;;204.88;77.05;;;13.30;99.90;;;;;;5110706;28;20016;-67
2023/05/11 02:04:44;;;;;;;188.93;74.22;;;13.30;99.90;;;;;;5110709;28;20028;-66
2023/05/11 02:07:12;;;;;;;197.77;76.00;;;13.40;99.90;;;;;;5110986;28;20373;-66
2023/05/11 02:09:40;;;;;;;200.77;77.45;;;13.30;99.90;;;;;;5110153;28;20393;-67
2023/05/11 02:12:07;;;;;;;201.75;76.93;;;13.30;99.90;;;;;;5110622;28;20369;-66
2023/05/11 02:14:35;;;;;;;203.65;75.00;;;13.30;99.90;;;;;;5109946;28;20038;-66
2023/05/11 02:17:02;;;;;;;194.70;74.93;;;13.30;99.90;;;;;;5110508;28;20081;-67
2023/05/11 02:19:30;;;;;;;195.43;71.68;;;13.30;99.90;;;;;;5105522;28;20063;-67
2023/05/11 02:21:58;;;;;;;177.63;71.15;;;13.30;99.90;;;;;;5097054;28;20119;-66
2023/05/11 02:24:25;;;;;;;195.23;71.40;;;13.20;99.90;;;;;;5096861;28;20493;-66
2023/05/11 02:26:52;;;;;;;185.00;71.30;;;13.20;99.90;;;;;;5096379;28;20477;-67
2023/05/11 02:29:17;;;;;;;190.63;69.45;;;13.20;99.90;;;;;;5096901;28;20508;-66
2023/05/11 02:31:45;;;;;;;202.50;72.18;;;13.10;99.90;;;;;;5096488;28;20103;-67
2023/05/11 02:34:19;;;;;;;182.70;69.03;;;13.10;99.90;;;;;;5096842;28;20024;-67
2023/05/11 02:36:48;;;;;;;205.32;70.75;;;13.20;99.90;;;;;;5096511;28;20095;-67
2023/05/11 02:39:20;;;;;;;189.82;68.28;;;13.20;99.90;;;;;;5096907;28;20024;-67
2023/05/11 02:41:48;;;;;;;185.88;68.38;;;13.20;99.90;;;;;;5096935;28;20082;-66
2023/05/11 02:44:16;;;;;;;193.65;70.15;;;13.20;99.90;;;;;;5096175;28;20028;-66
2023/05/11 02:46:46;;;;;;;171.18;67.55;;;13.20;99.90;;;;;;5096282;28;20020;-66
2023/05/11 02:49:13;;;;;;;194.38;68.95;;;13.20;99.90;;;;;;5096202;28;20035;-67
2023/05/11 02:51:43;;;;;;;189.45;67.55;;;13.20;99.90;;;;;;5096280;28;20020;-66
2023/05/11 02:54:09;;;;;;;194.70;69.30;;;13.20;99.90;;;;;;5096204;28;20111;-67
2023/05/11 02:56:35;;;;;;;206.20;67.68;;;13.20;99.90;;;;;;5095709;28;20500;-66
2023/05/11 02:59:01;;;;;;;197.70;69.28;;;13.20;99.90;;;;;;5096238;28;20123;-66
2023/05/11 03:01:28;;;;;;;208.98;71.13;;;13.20;99.90;;;;;;5095963;28;20067;-66
2023/05/11 03:03:53;;;;;;;188.55;67.00;;;13.10;99.90;;;;;;5096148;28;20055;-66
2023/05/11 03:06:19;;;;;;;208.80;71.45;;;13.20;99.90;;;;;;5096175;28;20496;-67
2023/05/11 03:08:45;;;;;;;203.73;70.22;;;13.10;99.90;;;;;;5095249;28;20131;-67
2023/05/11 03:11:13;;;;;;;206.60;69.53;;;13.20;99.90;;;;;;5095580;28;20068;-66
2023/05/11 03:13:40;;;;;;;206.38;70.60;;;13.20;99.90;;;;;;5096311;28;20103;-67
2023/05/11 03:16:07;;;;;;;208.85;72.15;;;13.20;99.90;;;;;;5095623;28;20020;-67
2023/05/11 03:18:33;;;;;;;208.98;71.95;;;13.20;99.90;;;;;;5095753;28;20411;-67
2023/05/11 03:21:00;;;;;;;210.57;73.63;;;13.20;99.90;;;;;;5095816;28;20034;-67
2023/05/11 03:23:26;;;;;;;227.10;77.03;;;13.20;99.90;;;;;;5095929;28;20059;-66
2023/05/11 03:25:52;;;;;;;220.77;75.40;;;13.20;99.90;;;;;;5095322;28;20024;-66
2023/05/11 03:28:21;;;;;;;236.35;76.38;;;13.20;99.90;;;;;;5095748;28;20080;-67
2023/05/11 03:30:48;;;;;;;228.55;78.53;;;13.20;99.90;;;;;;5095145;28;20362;-67
2023/05/11 03:33:13;;;;;;;229.93;74.80;;;13.10;99.90;;;;;;5095042;28;20024;-67
2023/05/11 03:35:41;;;;;;;216.75;75.05;;;13.20;99.90;;;;;;5095244;28;20026;-67
2023/05/11 03:38:09;;;;;;;239.75;79.38;;;13.20;99.90;;;;;;5095287;28;20107;-66
2023/05/11 03:40:37;;;;;;;236.23;77.68;;;13.20;99.90;;;;;;5094911;28;20120;-66
2023/05/11 03:43:04;;;;;;;232.90;80.00;;;13.20;99.90;;;;;;5094637;28;20036;-67
2023/05/11 03:45:31;;;;;;;248.05;81.95;;;13.20;99.90;;;;;;5095160;28;20381;-66
2023/05/11 03:47:58;;;;;;;236.18;82.05;;;13.20;99.90;;;;;;5095382;28;20034;-67
2023/05/11 03:50:26;;;;;;;237.38;80.82;;;13.20;99.90;;;;;;5094830;28;20054;-67
2023/05/11 03:52:51;;;;;;;238.93;79.78;;;13.20;99.90;;;;;;5094759;28;20024;-67
2023/05/11 03:55:17;;;;;;;242.25;81.43;;;13.20;99.90;;;;;;5094953;28;20488;-67
2023/05/11 03:57:42;;;;;;;260.52;85.13;;;13.20;99.90;;;;;;5095177;28;20054;-66
2023/05/11 04:00:10;;;;;;;259.05;84.47;;;13.10;99.90;;;;;;5095067;28;20034;-66
2023/05/11 04:02:36;;;;;;;273.75;86.65;;;13.20;99.90;;;;;;5094795;28;20460;-66
2023/05/11 04:05:10;;;;;;;264.48;82.95;;;13.10;99.90;;;;;;5095048;28;20059;-66
2023/05/11 04:07:37;;;;;;;259.35;82.50;;;13.10;99.90;;;;;;5094658;28;20105;-67
2023/05/11 04:10:04;;;;;;;243.60;84.78;;;13.10;99.90;;;;;;5094660;28;20463;-67
2023/05/11 04:12:30;;;;;;;250.70;84.63;;;13.20;99.90;;;;;;5094672;28;20039;-67
2023/05/11 04:14:55;;;;;;;264.75;89.32;;;13.10;99.90;;;;;;5094314;28;20031;-66
2023/05/11 04:17:21;;;;;;;265.85;88.10;;;13.10;99.90;;;;;;5094834;28;20028;-66
2023/05/11 04:19:46;;;;;;;260.23;85.68;;;13.10;99.90;;;;;;5094623;28;20165;-66
2023/05/11 04:22:12;;;;;;;244.15;83.68;;;13.10;99.90;;;;;;5094743;28;20024;-66
2023/05/11 04:24:38;;;;;;;251.27;81.43;;;13.20;99.90;;;;;;5094378;28;20028;-66
2023/05/11 04:27:04;;;;;;;239.02;80.45;;;13.10;99.90;;;;;;5094366;28;20016;-66
2023/05/11 04:29:30;;;;;;;236.38;78.30;;;13.20;99.90;;;;;;5094017;28;20035;-66
2023/05/11 04:31:55;;;;;;;239.48;79.20;;;13.10;99.90;;;;;;5093452;28;20470;-66
2023/05/11 04:34:21;;;;;;;233.25;78.53;;;13.20;99.90;;;;;;5094122;28;20016;-66
2023/05/11 04:36:48;;;;;;;241.02;77.75;;;13.10;99.90;;;;;;5094186;28;20028;-66
2023/05/11 04:39:15;;;;;;;241.68;80.55;;;13.20;99.90;;;;;;5094233;28;20504;-66
2023/05/11 04:41:42;;;;;;;241.32;79.72;;;13.20;99.90;;;;;;5094217;28;20024;-66
2023/05/11 04:44:07;;;;;;;240.35;78.05;;;13.20;99.90;;;;;;5094179;28;20024;-67
2023/05/11 04:46:33;;;;;;;225.73;75.82;;;13.20;99.90;;;;;;5094391;28;20035;-66
2023/05/11 04:48:58;;;;;;;233.73;77.20;;;13.20;99.90;;;;;;5093747;28;20078;-66
2023/05/11 04:51:24;;;;;;;224.05;76.07;;;13.10;99.90;;;;;;5093980;28;20036;-66
2023/05/11 04:53:50;;;;;;;246.88;81.38;;;13.10;99.90;;;;;;5093742;28;20020;-67
2023/05/11 04:56:16;;;;;;;250.13;79.30;;;13.10;99.90;;;;;;5094174;28;20028;-66
2023/05/11 04:58:42;;;;;;;242.05;78.85;;;13.20;99.90;;;;;;5094000;28;20461;-67
2023/05/11 05:01:07;;;;;;;248.57;79.30;;;13.20;99.90;;;;;;5094169;28;20016;-67
2023/05/11 05:03:33;;;;;;;258.33;80.60;;;13.50;99.90;;;;;;5093940;28;20028;-68
2023/05/11 05:05:58;;;;;;;248.07;82.15;;;13.10;99.90;;;;;;5094167;28;20028;-67
2023/05/11 05:08:24;;;;;;;238.43;80.18;;;13.10;99.90;;;;;;5093492;28;20080;-67
2023/05/11 05:10:50;;;;;;;248.52;81.53;;;13.10;99.90;;;;;;5094126;28;20034;-67
2023/05/11 05:13:15;;;;;;;234.02;78.65;;;13.10;99.90;;;;;;5093823;28;20024;-67
2023/05/11 05:15:41;;;;;;;232.32;77.95;;;13.10;99.90;;;;;;5094120;28;20058;-67
2023/05/11 05:18:07;;;;;;;228.55;78.07;;;13.10;99.90;;;;;;5093797;28;20027;-67
2023/05/11 05:20:33;;;;;;;240.32;79.13;;;13.20;99.90;;;;;;5094016;28;20024;-67
2023/05/11 05:22:59;;;;;;;242.20;79.45;;;13.10;99.90;;;;;;5093844;28;20020;-67
2023/05/11 05:25:25;;;;;;;236.70;76.72;;;13.10;99.90;;;;;;5093979;28;20035;-67
2023/05/11 05:27:51;;;;;;;221.30;75.50;;;13.10;99.90;;;;;;5093906;28;20028;-68
2023/05/11 05:30:16;;;;;;;238.23;78.68;;;13.20;99.90;;;;;;5093682;28;20024;-68
2023/05/11 05:32:42;;;;;;;244.57;80.65;;;13.20;99.90;;;;;;5093348;28;20052;-67
2023/05/11 05:35:07;;;;;;;235.10;78.80;;;13.20;99.90;;;;;;5093602;28;20024;-67
2023/05/11 05:37:33;;;;;;;246.60;80.13;;;13.30;99.90;;;;;;5094041;28;20369;-67
2023/05/11 05:39:59;;;;;;;239.02;80.38;;;13.30;99.90;;;;;;5094066;28;20075;-67
2023/05/11 05:42:24;;;;;;;240.68;81.05;;;13.40;99.90;;;;;;5093313;28;20020;-67
2023/05/11 05:44:50;;;;;;;227.63;76.65;;;13.40;99.90;;;;;;5093853;28;20043;-67
2023/05/11 05:47:15;;;;;;;215.57;76.93;;;13.40;99.90;;;;;;5093814;28;20016;-67
2023/05/11 05:49:41;;;;;;;209.80;74.78;;;13.50;99.90;;;;;;5093348;28;20387;-67
2023/05/11 05:52:09;;;;;;;198.65;74.63;;;13.60;99.90;;;;;;5093714;28;20032;-67
2023/05/11 05:54:35;;;;;;;195.82;73.05;;;13.70;99.90;;;;;;5094389;28;20024;-67
2023/05/11 05:57:00;;;;;;;178.85;72.20;;;13.70;99.90;;;;;;5076992;28;20386;-67
2023/05/11 05:59:26;;;;;;;182.15;71.20;;;13.80;99.90;;;;;;5077180;28;20028;-67
2023/05/11 06:01:51;;;;;;;170.80;69.50;;;13.90;99.90;;;;;;5077419;28;20167;-67
2023/05/11 06:04:17;;;;;;;168.80;68.57;;;14.00;99.90;;;;;;5076013;28;20024;-67
2023/05/11 06:06:43;;;;;;;168.95;67.65;;;14.00;99.90;;;;;;5077107;28;20036;-67
2023/05/11 06:09:08;;;;;;;158.00;66.28;;;14.10;99.90;;;;;;5075815;28;20490;-67
2023/05/11 06:11:34;;;;;;;168.95;70.07;;;14.20;99.90;;;;;;5076785;28;20536;-67
2023/05/11 06:13:59;;;;;;;152.57;66.78;;;14.10;99.90;;;;;;5076808;28;20067;-68
2023/05/11 06:16:26;;;;;;;152.50;66.03;;;14.20;99.90;;;;;;5076253;28;20017;-67
2023/05/11 06:18:52;;;;;;;148.60;65.60;;;14.30;99.90;;;;;;5076865;28;20439;-67
2023/05/11 06:21:17;;;;;;;155.05;66.22;;;14.30;99.90;;;;;;5076456;28;20057;-67
2023/05/11 06:23:43;;;;;;;139.90;65.00;;;14.50;99.90;;;;;;5076673;28;20032;-67
2023/05/11 06:26:08;;;;;;;135.75;63.47;;;14.70;99.90;;;;;;5076583;28;20028;-67
2023/05/11 06:28:34;;;;;;;126.20;60.67;;;14.70;99.90;;;;;;5075926;28;20454;-67
2023/05/11 06:30:59;;;;;;;132.05;61.30;;;14.60;99.90;;;;;;5076492;28;20024;-67
2023/05/11 06:33:25;;;;;;;134.35;61.60;;;14.50;99.90;;;;;;5076468;28;20024;-67
2023/05/11 06:35:51;;;;;;;132.02;60.72;;;14.60;99.90;;;;;;5076150;28;20033;-67
2023/05/11 06:38:16;;;;;;;135.77;61.55;;;14.50;99.90;;;;;;5076424;28;20044;-67
2023/05/11 06:40:42;;;;;;;130.20;60.28;;;14.50;99.90;;;;;;5075696;28;20024;-67
2023/05/11 06:43:07;;;;;;;134.35;62.00;;;14.50;99.90;;;;;;5075977;28;20085;-68
2023/05/11 06:45:33;;;;;;;125.22;57.92;;;14.50;99.90;;;;;;5076205;28;20037;-67
2023/05/11 06:47:58;;;;;;;119.18;56.85;;;14.50;99.90;;;;;;5075947;28;20034;-67
2023/05/11 06:50:24;;;;;;;119.28;58.47;;;14.50;99.90;;;;;;5076218;28;20115;-67
2023/05/11 06:52:50;;;;;;;116.63;57.17;;;14.50;99.90;;;;;;5075631;28;20020;-67
2023/05/11 06:55:15;;;;;;;109.35;54.20;;;14.50;99.90;;;;;;5075755;28;20024;-67
2023/05/11 06:57:41;;;;;;;109.38;50.30;;;14.50;99.90;;;;;;5075342;28;20016;-67
2023/05/11 07:00:07;;;;;;;108.07;53.05;;;14.50;99.90;;;;;;5075994;28;20111;-67
2023/05/11 07:02:33;;;;;;;109.85;52.13;;;14.50;99.90;;;;;;5075461;28;20371;-67
2023/05/11 07:04:58;;;;;;;121.13;58.97;;;14.60;99.90;;;;;;5075885;28;20082;-67
2023/05/11 07:07:24;;;;;;;118.47;57.03;;;14.60;99.90;;;;;;5075288;28;20071;-67
2023/05/11 07:09:49;;;;;;;127.00;58.75;;;14.40;99.90;;;;;;5075426;28;20032;-67
2023/05/11 07:12:15;;;;;;;122.55;58.08;;;14.30;99.90;;;;;;5074794;28;20035;-68
2023/05/11 07:14:41;;;;;;;126.47;58.03;;;14.20;99.90;;;;;;5075437;28;20039;-67
2023/05/11 07:17:06;;;;;;;132.13;61.70;;;14.20;99.90;;;;;;5075150;28;20490;-67
2023/05/11 07:19:32;;;;;;;127.13;60.97;;;14.20;99.90;;;;;;5074939;28;20047;-67
2023/05/11 07:21:57;;;;;;;135.57;61.65;;;14.20;99.90;;;;;;5075490;28;20083;-67
2023/05/11 07:24:23;;;;;;;129.60;59.03;;;14.20;99.90;;;;;;5075555;28;20028;-67
2023/05/11 07:26:50;;;;;;;132.73;58.47;;;14.20;99.90;;;;;;5075439;28;20025;-67
2023/05/11 07:29:16;;;;;;;138.00;61.60;;;14.10;99.90;;;;;;5074831;28;20107;-67
2023/05/11 07:31:41;;;;;;;124.88;56.97;;;14.10;99.90;;;;;;5074550;28;20059;-67
2023/05/11 07:34:07;;;;;;;126.07;57.83;;;14.20;99.90;;;;;;5074772;28;20045;-67
2023/05/11 07:36:33;;;;;;;112.63;54.55;;;14.20;99.90;;;;;;5075262;28;20033;-67
2023/05/11 07:39:00;;;;;;;111.75;53.40;;;14.30;99.90;;;;;;5074956;28;20409;-68
2023/05/11 07:41:26;;;;;;;104.68;51.40;;;14.20;99.90;;;;;;5075437;28;20029;-67
2023/05/11 07:43:52;;;;;;;103.65;50.20;;;14.30;99.90;;;;;;5073906;28;20035;-67
2023/05/11 07:46:18;;;;;;;93.18;46.85;;;14.30;99.90;;;;;;5074825;28;20462;-67
2023/05/11 07:48:44;;;;;;;92.35;47.05;;;14.30;99.90;;;;;;5074781;28;20038;-67
2023/05/11 07:51:10;;;;;;;94.25;46.67;;;14.20;99.90;;;;;;5074260;28;20016;-67
2023/05/11 07:53:36;;;;;;;96.35;48.13;;;14.30;99.90;;;;;;5074457;28;20024;-67
2023/05/11 07:56:02;;;;;;;97.82;47.33;;;14.20;99.90;;;;;;5074825;28;20366;-67
2023/05/11 07:58:28;;;;;;;94.85;46.97;;;14.30;99.90;;;;;;5074649;28;20025;-67
2023/05/11 08:00:54;;;;;;;92.38;45.78;;;14.40;99.90;;;;;;5074911;28;20028;-67
2023/05/11 08:03:22;;;;;;;95.05;47.95;;;14.40;99.90;;;;;;5074756;28;20039;-67
2023/05/11 08:05:48;;;;;;;87.28;44.30;;;14.40;99.90;;;;;;5072992;28;20032;-67
2023/05/11 08:08:14;;;;;;;84.00;43.85;;;14.50;99.90;;;;;;5073929;28;20058;-67
2023/05/11 08:10:40;;;;;;;99.88;51.78;;;14.40;99.90;;;;;;5074104;28;20051;-67
2023/05/11 08:13:06;;;;;;;98.68;51.97;;;14.50;99.90;;;;;;5074520;28;20028;-67
2023/05/11 08:15:32;;;;;;;106.18;53.10;;;14.60;99.90;;;;;;5074232;28;20029;-67
2023/05/11 08:17:58;;;;;;;102.10;53.22;;;14.60;99.90;;;;;;5074026;28;20020;-67
2023/05/11 08:20:24;;;;;;;103.22;52.42;;;14.60;99.90;;;;;;5074451;28;20116;-67
2023/05/11 08:22:50;;;;;;;104.80;53.30;;;14.70;99.90;;;;;;5073929;28;20036;-67
2023/05/11 08:25:15;;;;;;;102.65;52.75;;;14.80;99.90;;;;;;5074357;28;20039;-67
2023/05/11 08:27:41;;;;;;;98.60;52.65;;;14.90;99.90;;;;;;5074360;28;20037;-67
2023/05/11 08:30:08;;;;;;;94.47;50.45;;;15.10;99.90;;;;;;5073508;28;20075;-67
2023/05/11 08:32:34;;;;;;;88.45;49.08;;;15.20;99.90;;;;;;5074312;28;20052;-67
2023/05/11 08:35:00;;;;;;;80.63;46.65;;;15.20;99.90;;;;;;5073036;28;20050;-67
2023/05/11 08:37:25;;;;;;;89.53;50.17;;;15.20;99.90;;;;;;5073840;28;20032;-67
2023/05/11 08:39:51;;;;;;;81.28;46.38;;;15.40;99.90;;;;;;5073748;28;20107;-67
2023/05/11 08:42:18;;;;;;;78.13;45.30;;;15.40;99.90;;;;;;5073545;28;20378;-67
2023/05/11 08:44:46;;;;;;;62.17;39.30;;;15.50;99.90;;;;;;5074108;28;20458;-67
2023/05/11 08:47:12;;;;;;;89.32;47.97;;;15.30;99.90;;;;;;5074055;28;20400;-67
2023/05/11 08:49:38;;;;;;;97.93;52.42;;;15.10;99.90;;;;;;5073104;28;20074;-67
2023/05/11 08:52:04;;;;;;;90.07;45.75;;;15.10;99.90;;;;;;5073301;28;20078;-67
2023/05/11 08:54:30;;;;;;;80.18;44.38;;;15.20;99.90;;;;;;5072605;28;20485;-67
2023/05/11 08:56:57;;;;;;;77.38;44.17;;;15.10;99.90;;;;;;5073613;28;20052;-67
2023/05/11 08:59:27;;;;;;;76.57;43.03;;;15.20;99.90;;;;;;5073574;28;20078;-67
2023/05/11 09:01:54;;;;;;;74.22;42.58;;;15.10;99.90;;;;;;5073254;28;20390;-67
2023/05/11 09:04:20;;;;;;;67.78;38.80;;;15.20;99.90;;;;;;5074156;28;20047;-67
2023/05/11 09:06:47;;;;;;;56.28;34.55;;;15.30;99.90;;;;;;5074154;28;20047;-67
2023/05/11 09:09:13;;;;;;;54.95;33.53;;;15.30;99.90;;;;;;5073085;28;20128;-67
2023/05/11 09:11:40;;;;;;;54.17;34.10;;;15.40;99.90;;;;;;5073600;28;20074;-67
2023/05/11 09:14:06;;;;;;;49.00;32.88;;;15.50;99.90;;;;;;5072540;28;20028;-67
2023/05/11 09:16:34;;;;;;;48.22;30.48;;;15.50;99.90;;;;;;5073786;28;20478;-67
2023/05/11 09:19:01;;;;;;;46.10;29.50;;;15.70;99.90;;;;;;5071582;28;20036;-67
2023/05/11 09:21:28;;;;;;;47.75;29.35;;;15.70;99.90;;;;;;5073209;28;20119;-67
2023/05/11 09:23:55;;;;;;;41.60;27.33;;;16.00;99.90;;;;;;5073183;28;20039;-67
2023/05/11 09:26:23;;;;;;;44.28;28.83;;;15.90;99.90;;;;;;5073490;28;20029;-67
2023/05/11 09:28:51;;;;;;;38.78;24.92;;;16.10;99.90;;;;;;5072485;28;20029;-67
2023/05/11 09:31:41;;;;;;;35.45;24.88;;;16.20;99.90;;;;;;5077031;28;20021;-67
2023/05/11 09:34:11;;;;;;;40.35;24.92;;;16.30;99.90;;;;;;5077171;28;20028;-67
2023/05/11 09:36:36;;;;;;;37.25;23.85;;;16.30;99.70;;;;;;5075942;28;20107;-67
2023/05/11 09:39:02;;;;;;;37.97;24.27;;;16.50;93.80;;;;;;5077691;28;20410;-67
2023/05/11 09:41:30;;;;;;;57.60;24.80;;;16.60;75.00;;;;;;5076763;28;20416;-67
2023/05/11 09:44:13;;;;;;;34.05;22.05;;;16.80;94.20;;;;;;5077443;28;20024;-67
2023/05/11 09:46:41;;;;;;;35.55;22.55;;;16.60;70.10;;;;;;5076902;28;20024;-67
2023/05/11 09:49:07;;;;;;;33.22;22.73;;;16.80;97.20;;;;;;5075446;28;20033;-68
2023/05/11 09:51:35;;;;;;;32.83;22.73;;;16.90;68.00;;;;;;5076757;28;20432;-67
2023/05/11 09:54:15;;;;;;;29.33;20.98;;;16.90;56.40;;;;;;5076695;28;20029;-67
2023/05/11 09:56:45;;;;;;;30.52;21.35;;;17.00;31.30;;;;;;5076709;28;20020;-67
2023/05/11 09:59:11;;;;;;;31.15;22.00;;;17.30;40.80;;;;;;5076665;28;20029;-67
2023/05/11 10:01:37;;;;;;;30.63;22.05;;;17.30;53.90;;;;;;5077071;28;20031;-67
2023/05/11 10:04:04;;;;;;;30.95;20.83;;;17.20;26.80;;;;;;5076982;28;20107;-67
2023/05/11 10:06:52;;;;;;;29.13;19.08;;;17.10;38.90;;;;;;5076885;28;20075;-67
2023/05/11 10:09:22;;;;;;;26.83;19.02;;;17.20;23.00;;;;;;5074772;28;20430;-67
2023/05/11 10:11:48;;;;;;;28.92;20.63;;;17.10;21.70;;;;;;5075492;28;20108;-67
2023/05/11 10:14:15;;;;;;;29.83;19.98;;;17.10;22.00;;;;;;5075392;28;20470;-67
2023/05/11 10:16:42;;;;;;;29.58;19.10;;;17.10;26.60;;;;;;5076585;28;20355;-67
2023/05/11 10:19:08;;;;;;;28.63;19.25;;;17.10;48.50;;;;;;5076673;28;20040;-68
2023/05/11 10:21:34;;;;;;;27.63;19.92;;;17.00;40.50;;;;;;5075248;28;20036;-67
2023/05/11 10:24:01;;;;;;;27.02;19.17;;;16.90;51.60;;;;;;5076070;28;20343;-67
2023/05/11 10:26:29;;;;;;;26.73;18.92;;;17.10;66.00;;;;;;5074897;28;20036;-67
2023/05/11 10:28:55;;;;;;;25.05;18.05;;;17.30;68.90;;;;;;5075981;28;20474;-67
2023/05/11 10:31:22;;;;;;;26.10;18.40;;;17.60;20.70;;;;;;5076340;28;20031;-67
2023/05/11 10:33:50;;;;;;;29.23;18.88;;;17.80;38.80;;;;;;5075571;28;20029;-67
2023/05/11 10:36:17;;;;;;;23.52;17.70;;;18.00;21.70;;;;;;5076203;28;20390;-68
2023/05/11 10:38:42;;;;;;;25.67;18.17;;;18.00;9.10;;;;;;5075835;28;20028;-67
2023/05/11 10:41:25;;;;;;;23.40;17.63;;;17.80;18.10;;;;;;5075180;28;20486;-68
2023/05/11 10:44:10;;;;;;;24.95;18.17;;;18.00;1.00;;;;;;5075846;28;20455;-67
2023/05/11 10:47:16;;;;;;;28.52;19.60;;;17.40;14.90;;;;;;5075891;28;20036;-67
2023/05/11 10:50:12;;;;;;;24.80;18.42;;;17.30;49.30;;;;;;5075629;28;20047;-67
2023/05/11 10:53:05;;;;;;;26.88;19.45;;;17.60;3.30;;;;;;5075298;28;20107;-68
2023/05/11 10:55:47;;;;;;;27.45;19.60;;;17.90;6.20;;;;;;5075558;28;20177;-67
2023/05/11 10:58:20;;;;;;;27.08;20.45;;;18.20;1.00;;;;;;5075834;28;20032;-68
2023/05/11 11:01:21;;;;;;;28.90;20.75;;;18.20;1.00;;;;;;5074943;28;20045;-67
2023/05/11 11:04:04;;;;;;;26.13;19.38;;;18.20;1.00;;;;;;5075148;28;20028;-67
2023/05/11 11:06:32;;;;;;;24.65;18.15;;;18.30;1.00;;;;;;5075449;28;20108;-67
2023/05/11 11:08:59;;;;;;;22.80;17.50;;;18.20;12.70;;;;;;5073813;28;20049;-67
2023/05/11 11:11:30;;;;;;;22.58;17.15;;;17.90;24.10;;;;;;5075342;28;20059;-67
2023/05/11 11:13:57;;;;;;;28.10;18.40;;;17.80;39.60;;;;;;5074853;28;20024;-67
2023/05/11 11:16:24;;;;;;;25.08;18.42;;;17.60;46.50;;;;;;5075290;28;20029;-67
2023/05/11 11:18:50;;;;;;;22.25;16.30;;;17.40;6.50;;;;;;5075217;28;20501;-67
2023/05/11 11:21:41;;;;;;;22.95;16.35;;;17.40;24.20;;;;;;5075077;28;20029;-67
2023/05/11 11:24:06;;;;;;;23.33;17.30;;;17.30;46.10;;;;;;5075216;28;20104;-67
2023/05/11 11:26:49;;;;;;;22.38;16.25;;;17.20;31.80;;;;;;5075540;28;20103;-67
2023/05/11 11:29:15;;;;;;;25.83;17.95;;;16.90;50.80;;;;;;5074595;28;20046;-67
2023/05/11 11:31:41;;;;;;;24.27;17.50;;;16.90;30.50;;;;;;5075099;28;20035;-67
2023/05/11 11:37:05;;;;;;;27.58;19.35;;;16.90;63.30;;;;;;5111830;27;20133;-67
2023/05/11 11:39:48;;;;;;;28.85;18.88;;;16.80;58.10;;;;;;5110458;28;20073;-67
2023/05/11 11:42:18;;;;;;;29.95;20.00;;;16.90;87.30;;;;;;5111166;28;20112;-67
2023/05/11 11:44:44;;;;;;;27.48;18.83;;;16.60;92.10;;;;;;5111200;28;20020;-67
2023/05/11 11:47:18;;;;;;;22.67;17.50;;;16.70;99.90;;;;;;5111126;28;20016;-67
2023/05/11 11:49:47;;;;;;;28.60;17.95;;;16.70;99.90;;;;;;5110127;28;20038;-67
2023/05/11 11:52:31;;;;;;;23.23;17.55;;;16.70;99.90;;;;;;5111266;28;20020;-67
2023/05/11 11:54:58;;;;;;;;;;;16.70;99.90;;;;;;5111939;28;20059;-67
2023/05/11 11:57:42;;;;;;;27.15;18.02;;;16.70;99.90;;;;;;5111154;28;19904;-67
2023/05/11 12:00:11;;;;;;;28.25;16.48;;;16.40;99.90;;;;;;5111147;28;20023;-67
2023/05/11 12:02:41;;;;;;;23.50;16.88;;;16.40;99.90;;;;;;5110773;28;20019;-67
2023/05/11 12:05:12;;;;;;;21.58;15.90;;;16.40;99.90;;;;;;5110813;28;20024;-67
2023/05/11 12:07:42;;;;;;;19.30;15.50;;;16.40;99.90;;;;;;5110211;28;20032;-67
2023/05/11 12:10:10;;;;;;;21.45;15.55;;;16.20;99.90;;;;;;5110994;28;20103;-67
2023/05/11 12:12:37;;;;;;;18.75;14.75;;;16.30;99.90;;;;;;5110674;28;20042;-67
2023/05/11 12:15:05;;;;;;;20.65;15.38;;;16.40;99.90;;;;;;5111174;28;20031;-67
2023/05/11 12:17:33;;;;;;;16.05;13.40;;;16.50;99.90;;;;;;5110963;27;20043;-67
2023/05/11 12:20:16;;;;;;;17.85;13.10;;;16.50;99.90;;;;;;5109701;28;20477;-67
2023/05/11 12:22:43;;;;;;;14.10;12.03;;;16.60;99.90;;;;;;5110842;28;20050;-67
2023/05/11 12:25:11;;;;;;;15.25;12.35;;;16.40;99.90;;;;;;5110653;28;20032;-67
2023/05/11 12:27:46;;;;;;;12.88;10.00;;;16.50;99.90;;;;;;5110453;28;20384;-67
2023/05/11 12:30:29;;;;;;;11.60;10.02;;;16.40;99.90;;;;;;5110885;28;20024;-67
2023/05/11 12:32:55;;;;;;;13.30;9.98;;;16.40;99.90;;;;;;5110470;28;20023;-68